DLH1YN EDDM-LKPR
Flight info
| Callsign | DLH1YN |
|---|---|
| Flight time | 0h 31m |
| Altitude | 25000 |
| Route | AKINI1S AKINI Y104 MAMOR L132 AGNAV DCT LOMKI |
| Aircraft | A320/M-SDE2E3FGIJ1LORWXYZ/HB1 |
Departure
| Time | 2026-05-06 16:46 |
|---|---|
| Airport | Munich Airport (EDDM) |
Arrival
| Time | 2026-05-06 17:17 |
|---|---|
| Airport | Václav Havel Airport Prague (LKPR) |
| Time | Latitude | Longitude | Altitude | Speed | Heading |
|---|---|---|---|---|---|
| 2026-05-06 16:00 | 48.35619 | 11.79707 | 1486 ft | 0 kts | 83° |
| 2026-05-06 16:35 | 48.35619 | 11.79706 | 1485 ft | 1 kts | 83° |
| 2026-05-06 16:35 | 48.35616 | 11.79670 | 1498 ft | 4 kts | 83° |
| 2026-05-06 16:35 | 48.35613 | 11.79631 | 1477 ft | 2 kts | 83° |
| 2026-05-06 16:35 | 48.35609 | 11.79598 | 1479 ft | 4 kts | 63° |
| 2026-05-06 16:36 | 48.35592 | 11.79571 | 1471 ft | 4 kts | 16° |
| 2026-05-06 16:36 | 48.35568 | 11.79570 | 1476 ft | 4 kts | 353° |
| 2026-05-06 16:36 | 48.35560 | 11.79571 | 1477 ft | 0 kts | 353° |
| 2026-05-06 16:39 | 48.35567 | 11.79570 | 1485 ft | 3 kts | 353° |
| 2026-05-06 16:40 | 48.35628 | 11.79560 | 1485 ft | 14 kts | 353° |
| 2026-05-06 16:40 | 48.35735 | 11.79541 | 1485 ft | 17 kts | 353° |
| 2026-05-06 16:40 | 48.35854 | 11.79521 | 1478 ft | 16 kts | 353° |
| 2026-05-06 16:40 | 48.35968 | 11.79501 | 1478 ft | 17 kts | 353° |
| 2026-05-06 16:41 | 48.36088 | 11.79482 | 1483 ft | 16 kts | 355° |
| 2026-05-06 16:41 | 48.36180 | 11.79470 | 1485 ft | 12 kts | 6° |
| 2026-05-06 16:41 | 48.36217 | 11.79527 | 1485 ft | 13 kts | 73° |
| 2026-05-06 16:41 | 48.36229 | 11.79670 | 1485 ft | 15 kts | 83° |
| 2026-05-06 16:42 | 48.36243 | 11.79848 | 1483 ft | 18 kts | 83° |
| 2026-05-06 16:42 | 48.36258 | 11.80049 | 1485 ft | 20 kts | 84° |
| 2026-05-06 16:42 | 48.36275 | 11.80268 | 1479 ft | 22 kts | 84° |
| 2026-05-06 16:42 | 48.36293 | 11.80501 | 1480 ft | 23 kts | 83° |
| 2026-05-06 16:43 | 48.36312 | 11.80743 | 1476 ft | 24 kts | 83° |
| 2026-05-06 16:43 | 48.36331 | 11.80996 | 1485 ft | 25 kts | 83° |
| 2026-05-06 16:43 | 48.36351 | 11.81259 | 1478 ft | 26 kts | 83° |
| 2026-05-06 16:43 | 48.36372 | 11.81529 | 1483 ft | 26 kts | 83° |
| 2026-05-06 16:44 | 48.36393 | 11.81794 | 1482 ft | 22 kts | 83° |
| 2026-05-06 16:44 | 48.36393 | 11.81948 | 1473 ft | 12 kts | 95° |
| 2026-05-06 16:44 | 48.36451 | 11.82002 | 1485 ft | 12 kts | 354° |
| 2026-05-06 16:44 | 48.36539 | 11.81986 | 1480 ft | 13 kts | 353° |
| 2026-05-06 16:45 | 48.36628 | 11.81971 | 1476 ft | 11 kts | 354° |
| 2026-05-06 16:45 | 48.36671 | 11.81908 | 1479 ft | 9 kts | 276° |
| 2026-05-06 16:45 | 48.36663 | 11.81789 | 1479 ft | 24 kts | 263° |
| 2026-05-06 16:45 | 48.36611 | 11.81105 | 1483 ft | 104 kts | 263° |
| 2026-05-06 16:46 | 48.36503 | 11.79702 | 1483 ft | 163 kts | 263° |
| 2026-05-06 16:46 | 48.36355 | 11.77922 | 2038 ft | 171 kts | 263° |
| 2026-05-06 16:46 | 48.36217 | 11.76160 | 2913 ft | 171 kts | 264° |
| 2026-05-06 16:46 | 48.36081 | 11.74269 | 3309 ft | 193 kts | 264° |
| 2026-05-06 16:47 | 48.35922 | 11.72143 | 3653 ft | 217 kts | 264° |
| 2026-05-06 16:47 | 48.35812 | 11.69771 | 4209 ft | 235 kts | 276° |
| 2026-05-06 16:47 | 48.36352 | 11.67443 | 5004 ft | 241 kts | 305° |
| 2026-05-06 16:47 | 48.37598 | 11.65768 | 5951 ft | 245 kts | 333° |
| 2026-05-06 16:48 | 48.39260 | 11.65032 | 6693 ft | 258 kts | 348° |
| 2026-05-06 16:48 | 48.41101 | 11.64471 | 7157 ft | 281 kts | 349° |
| 2026-05-06 16:48 | 48.43088 | 11.64453 | 7921 ft | 292 kts | 13° |
| 2026-05-06 16:48 | 48.44940 | 11.65713 | 8819 ft | 296 kts | 38° |
| 2026-05-06 16:49 | 48.46569 | 11.67655 | 9721 ft | 302 kts | 40° |
| 2026-05-06 16:49 | 48.48238 | 11.69702 | 10263 ft | 321 kts | 40° |
| 2026-05-06 16:49 | 48.50101 | 11.71740 | 10603 ft | 345 kts | 33° |
| 2026-05-06 16:49 | 48.52164 | 11.73752 | 11139 ft | 359 kts | 33° |
| 2026-05-06 16:50 | 48.54284 | 11.75808 | 11867 ft | 365 kts | 32° |
| 2026-05-06 16:50 | 48.56443 | 11.77896 | 12617 ft | 372 kts | 32° |
| 2026-05-06 16:50 | 48.58638 | 11.80019 | 13375 ft | 377 kts | 32° |
| 2026-05-06 16:50 | 48.60859 | 11.82172 | 14103 ft | 382 kts | 32° |
| 2026-05-06 16:51 | 48.63112 | 11.84360 | 14845 ft | 388 kts | 32° |
| 2026-05-06 16:51 | 48.65392 | 11.86584 | 15555 ft | 393 kts | 32° |
| 2026-05-06 16:51 | 48.67671 | 11.88810 | 16223 ft | 398 kts | 32° |
| 2026-05-06 16:51 | 48.70009 | 11.91097 | 16884 ft | 403 kts | 32° |
| 2026-05-06 16:52 | 48.72379 | 11.93421 | 17498 ft | 409 kts | 32° |
| 2026-05-06 16:52 | 48.74782 | 11.95780 | 18114 ft | 414 kts | 32° |
| 2026-05-06 16:52 | 48.77210 | 11.98165 | 18666 ft | 419 kts | 33° |
| 2026-05-06 16:52 | 48.79665 | 12.00580 | 19219 ft | 423 kts | 33° |
| 2026-05-06 16:53 | 48.82144 | 12.03020 | 19766 ft | 427 kts | 33° |
| 2026-05-06 16:53 | 48.84645 | 12.05483 | 20315 ft | 431 kts | 33° |
| 2026-05-06 16:53 | 48.87173 | 12.07973 | 20856 ft | 435 kts | 33° |
| 2026-05-06 16:53 | 48.89719 | 12.10488 | 21386 ft | 439 kts | 33° |
| 2026-05-06 16:54 | 48.92293 | 12.13033 | 21915 ft | 443 kts | 33° |
| 2026-05-06 16:54 | 48.94890 | 12.15600 | 22434 ft | 447 kts | 33° |
| 2026-05-06 16:54 | 48.97507 | 12.18182 | 22936 ft | 451 kts | 33° |
| 2026-05-06 16:54 | 49.00153 | 12.20792 | 23415 ft | 455 kts | 33° |
| 2026-05-06 16:55 | 49.02818 | 12.23424 | 23652 ft | 457 kts | 33° |
| 2026-05-06 16:55 | 49.05491 | 12.26070 | 23859 ft | 458 kts | 33° |
| 2026-05-06 16:55 | 49.08170 | 12.28727 | 24070 ft | 460 kts | 33° |
| 2026-05-06 16:55 | 49.10853 | 12.31394 | 24292 ft | 462 kts | 33° |
| 2026-05-06 16:56 | 49.13561 | 12.34089 | 24510 ft | 465 kts | 33° |
| 2026-05-06 16:56 | 49.16280 | 12.36800 | 24684 ft | 467 kts | 33° |
| 2026-05-06 16:56 | 49.19009 | 12.39524 | 24742 ft | 471 kts | 33° |
| 2026-05-06 16:56 | 49.21757 | 12.42269 | 24742 ft | 472 kts | 33° |
| 2026-05-06 16:57 | 49.24505 | 12.45019 | 24739 ft | 472 kts | 33° |
| 2026-05-06 16:57 | 49.27253 | 12.47770 | 24738 ft | 472 kts | 33° |
| 2026-05-06 16:57 | 49.30001 | 12.50522 | 24741 ft | 472 kts | 32° |
| 2026-05-06 16:57 | 49.32866 | 12.52978 | 24736 ft | 471 kts | 23° |
| 2026-05-06 16:58 | 49.35917 | 12.54765 | 24737 ft | 469 kts | 14° |
| 2026-05-06 16:58 | 49.39089 | 12.55883 | 24739 ft | 467 kts | 8° |
| 2026-05-06 16:58 | 49.42277 | 12.56860 | 24738 ft | 467 kts | 8° |
| 2026-05-06 16:58 | 49.45421 | 12.57834 | 24738 ft | 467 kts | 8° |
| 2026-05-06 16:59 | 49.48607 | 12.58837 | 24739 ft | 467 kts | 9° |
| 2026-05-06 16:59 | 49.51769 | 12.59992 | 24735 ft | 469 kts | 15° |
| 2026-05-06 16:59 | 49.54797 | 12.61884 | 24740 ft | 471 kts | 28° |
| 2026-05-06 16:59 | 49.57422 | 12.64863 | 24756 ft | 469 kts | 46° |
| 2026-05-06 17:00 | 49.59385 | 12.68824 | 24736 ft | 464 kts | 64° |
| 2026-05-06 17:00 | 49.60619 | 12.73374 | 24740 ft | 459 kts | 74° |
| 2026-05-06 17:00 | 49.61657 | 12.78019 | 24743 ft | 458 kts | 75° |
| 2026-05-06 17:00 | 49.62684 | 12.82673 | 24744 ft | 458 kts | 75° |
| 2026-05-06 17:01 | 49.63712 | 12.87346 | 24460 ft | 460 kts | 75° |
| 2026-05-06 17:01 | 49.64732 | 12.91998 | 24106 ft | 457 kts | 75° |
| 2026-05-06 17:01 | 49.65752 | 12.96623 | 23753 ft | 454 kts | 75° |
| 2026-05-06 17:01 | 49.66766 | 13.01212 | 23404 ft | 451 kts | 75° |
| 2026-05-06 17:02 | 49.67776 | 13.05777 | 22776 ft | 447 kts | 75° |
| 2026-05-06 17:02 | 49.68776 | 13.10303 | 22107 ft | 444 kts | 75° |
| 2026-05-06 17:02 | 49.69766 | 13.14793 | 21458 ft | 440 kts | 75° |
| 2026-05-06 17:02 | 49.70745 | 13.19256 | 20804 ft | 437 kts | 75° |
| 2026-05-06 17:03 | 49.71712 | 13.23681 | 20162 ft | 434 kts | 75° |
| 2026-05-06 17:03 | 49.72672 | 13.28097 | 19427 ft | 434 kts | 75° |
| 2026-05-06 17:03 | 49.73625 | 13.32523 | 18698 ft | 434 kts | 75° |
| 2026-05-06 17:03 | 49.74572 | 13.36941 | 17990 ft | 433 kts | 75° |
| 2026-05-06 17:04 | 49.75488 | 13.41371 | 17180 ft | 431 kts | 78° |
| 2026-05-06 17:04 | 49.76199 | 13.45867 | 16406 ft | 430 kts | 80° |
| 2026-05-06 17:04 | 49.76860 | 13.50363 | 15634 ft | 429 kts | 80° |
| 2026-05-06 17:04 | 49.77501 | 13.54865 | 14887 ft | 427 kts | 80° |
| 2026-05-06 17:05 | 49.77945 | 13.58066 | 14573 ft | 421 kts | 80° |
| 2026-05-06 17:05 | 49.78703 | 13.63638 | 14259 ft | 404 kts | 80° |
| 2026-05-06 17:05 | 49.79269 | 13.67837 | 14015 ft | 392 kts | 80° |
| 2026-05-06 17:05 | 49.79823 | 13.71932 | 13486 ft | 390 kts | 80° |
| 2026-05-06 17:06 | 49.80382 | 13.76057 | 12683 ft | 393 kts | 80° |
| 2026-05-06 17:06 | 49.80939 | 13.80202 | 11909 ft | 394 kts | 80° |
| 2026-05-06 17:06 | 49.81495 | 13.84346 | 11323 ft | 390 kts | 80° |
| 2026-05-06 17:06 | 49.82039 | 13.88381 | 11081 ft | 376 kts | 80° |
| 2026-05-06 17:07 | 49.82577 | 13.92268 | 10845 ft | 363 kts | 80° |
| 2026-05-06 17:07 | 49.83099 | 13.96024 | 10595 ft | 351 kts | 80° |
| 2026-05-06 17:07 | 49.83610 | 13.99668 | 10351 ft | 341 kts | 80° |
| 2026-05-06 17:07 | 49.84106 | 14.03207 | 10164 ft | 330 kts | 80° |
| 2026-05-06 17:08 | 49.84588 | 14.06614 | 10092 ft | 317 kts | 80° |
| 2026-05-06 17:08 | 49.85055 | 14.09888 | 9928 ft | 307 kts | 80° |
| 2026-05-06 17:08 | 49.85514 | 14.13096 | 9626 ft | 303 kts | 80° |
| 2026-05-06 17:08 | 49.85970 | 14.16276 | 9256 ft | 301 kts | 80° |
| 2026-05-06 17:09 | 49.86420 | 14.19431 | 8850 ft | 298 kts | 80° |
| 2026-05-06 17:09 | 49.86866 | 14.22547 | 8395 ft | 295 kts | 80° |
| 2026-05-06 17:09 | 49.87313 | 14.25631 | 7960 ft | 291 kts | 80° |
| 2026-05-06 17:09 | 49.87754 | 14.28664 | 7459 ft | 288 kts | 80° |
| 2026-05-06 17:10 | 49.88192 | 14.31667 | 6961 ft | 285 kts | 80° |
| 2026-05-06 17:10 | 49.88626 | 14.34645 | 6448 ft | 282 kts | 80° |
| 2026-05-06 17:10 | 49.89057 | 14.37608 | 5968 ft | 281 kts | 80° |
| 2026-05-06 17:10 | 49.89480 | 14.40544 | 5599 ft | 277 kts | 80° |
| 2026-05-06 17:11 | 49.89883 | 14.43419 | 5417 ft | 267 kts | 80° |
| 2026-05-06 17:11 | 49.90262 | 14.46136 | 5291 ft | 256 kts | 80° |
| 2026-05-06 17:11 | 49.90631 | 14.48803 | 5165 ft | 244 kts | 80° |
| 2026-05-06 17:11 | 49.91177 | 14.51195 | 5036 ft | 237 kts | 57° |
| 2026-05-06 17:12 | 49.92392 | 14.52818 | 4880 ft | 230 kts | 23° |
| 2026-05-06 17:12 | 49.93948 | 14.53148 | 4690 ft | 228 kts | 348° |
| 2026-05-06 17:12 | 49.95463 | 14.52414 | 4523 ft | 229 kts | 337° |
| 2026-05-06 17:12 | 49.96912 | 14.51482 | 4341 ft | 224 kts | 335° |
| 2026-05-06 17:13 | 49.98233 | 14.50289 | 4172 ft | 217 kts | 314° |
| 2026-05-06 17:13 | 49.99164 | 14.48521 | 4058 ft | 209 kts | 305° |
| 2026-05-06 17:13 | 50.00012 | 14.46772 | 4002 ft | 194 kts | 304° |
| 2026-05-06 17:13 | 50.00792 | 14.45169 | 3867 ft | 183 kts | 305° |
| 2026-05-06 17:14 | 50.01552 | 14.43605 | 3659 ft | 180 kts | 304° |
| 2026-05-06 17:14 | 50.02299 | 14.42066 | 3447 ft | 177 kts | 306° |
| 2026-05-06 17:14 | 50.03044 | 14.40543 | 3218 ft | 178 kts | 306° |
| 2026-05-06 17:14 | 50.03788 | 14.39016 | 2988 ft | 176 kts | 306° |
| 2026-05-06 17:15 | 50.04505 | 14.37532 | 2752 ft | 167 kts | 306° |
| 2026-05-06 17:15 | 50.05183 | 14.36138 | 2551 ft | 153 kts | 307° |
| 2026-05-06 17:15 | 50.05799 | 14.34873 | 2341 ft | 141 kts | 307° |
| 2026-05-06 17:15 | 50.06377 | 14.33675 | 2153 ft | 137 kts | 307° |
| 2026-05-06 17:16 | 50.06952 | 14.32492 | 1976 ft | 137 kts | 307° |
| 2026-05-06 17:16 | 50.07525 | 14.31310 | 1783 ft | 136 kts | 307° |
| 2026-05-06 17:16 | 50.08096 | 14.30132 | 1603 ft | 136 kts | 307° |
| 2026-05-06 17:16 | 50.08664 | 14.28961 | 1423 ft | 135 kts | 305° |
| 2026-05-06 17:17 | 50.09224 | 14.27797 | 1246 ft | 133 kts | 306° |
| 2026-05-06 17:17 | 50.09722 | 14.26764 | 1209 ft | 108 kts | 307° |
| 2026-05-06 17:17 | 50.10072 | 14.26042 | 1191 ft | 58 kts | 307° |
| 2026-05-06 17:17 | 50.10245 | 14.25730 | 1185 ft | 23 kts | 325° |
| 2026-05-06 17:18 | 50.10378 | 14.25659 | 1183 ft | 13 kts | 356° |
| 2026-05-06 17:18 | 50.10433 | 14.25664 | 1183 ft | 1 kts | 9° |
| 2026-05-06 17:18 | 50.10435 | 14.25665 | 1182 ft | 1 kts | 9° |
| 2026-05-06 17:18 | 50.10456 | 14.25670 | 1182 ft | 9 kts | 11° |
| 2026-05-06 17:19 | 50.10533 | 14.25717 | 1174 ft | 14 kts | 30° |
| 2026-05-06 17:19 | 50.10621 | 14.25808 | 1170 ft | 17 kts | 34° |
| 2026-05-06 17:19 | 50.10721 | 14.25916 | 1171 ft | 19 kts | 34° |
| 2026-05-06 17:19 | 50.10835 | 14.26037 | 1168 ft | 16 kts | 34° |
| 2026-05-06 17:20 | 50.10865 | 14.26120 | 1172 ft | 8 kts | 111° |
| 2026-05-06 17:20 | 50.10827 | 14.26207 | 1170 ft | 10 kts | 123° |
| 2026-05-06 17:20 | 50.10806 | 14.26260 | 1172 ft | 2 kts | 118° |
| 2026-05-06 17:20 | 50.10804 | 14.26268 | 1173 ft | 2 kts | 118° |
| 2026-05-06 17:21 | 50.10803 | 14.26270 | 1173 ft | 0 kts | 118° |
| 2026-05-06 17:22 | 50.10810 | 14.26295 | 1173 ft | 2 kts | 39° |
| 2026-05-06 17:22 | 50.10816 | 14.26277 | 1172 ft | 3 kts | 264° |
| 2026-05-06 17:22 | 50.10775 | 14.26225 | 1170 ft | 9 kts | 215° |
| 2026-05-06 17:22 | 50.10733 | 14.26180 | 1174 ft | 7 kts | 213° |
| 2026-05-06 17:23 | 50.10697 | 14.26142 | 1171 ft | 6 kts | 213° |
| 2026-05-06 17:23 | 50.10659 | 14.26101 | 1171 ft | 9 kts | 216° |
| 2026-05-06 17:23 | 50.10601 | 14.26069 | 1169 ft | 9 kts | 167° |
| 2026-05-06 17:23 | 50.10561 | 14.26137 | 1172 ft | 9 kts | 124° |
| 2026-05-06 17:24 | 50.10534 | 14.26223 | 1172 ft | 9 kts | 111° |
| 2026-05-06 17:24 | 50.10528 | 14.26307 | 1174 ft | 7 kts | 62° |
| 2026-05-06 17:24 | 50.10557 | 14.26343 | 1170 ft | 2 kts | 34° |
| 2026-05-06 17:24 | 50.10561 | 14.26348 | 1171 ft | 0 kts | 34° |